sensor_id;sensor_type;location;lat;lon;timestamp;pressure;altitude;pressure_sealevel;temperature;humidity
36062;BME280;22123;52.412;20.970;2023-08-12T00:01:10;101347.78;;;10.79;100.00
36062;BME280;22123;52.412;20.970;2023-08-12T00:03:36;101357.25;;;10.84;100.00
36062;BME280;22123;52.412;20.970;2023-08-12T00:06:02;101344.28;;;10.69;100.00
36062;BME280;22123;52.412;20.970;2023-08-12T00:08:28;101336.69;;;10.65;100.00
36062;BME280;22123;52.412;20.970;2023-08-12T00:10:54;101386.72;;;10.85;100.00
36062;BME280;22123;52.412;20.970;2023-08-12T00:13:20;101348.75;;;10.60;100.00
36062;BME280;22123;52.412;20.970;2023-08-12T00:15:46;101360.34;;;10.61;100.00
36062;BME280;22123;52.412;20.970;2023-08-12T00:18:12;101347.19;;;10.58;100.00
36062;BME280;22123;52.412;20.970;2023-08-12T00:20:37;101371.69;;;10.65;100.00
36062;BME280;22123;52.412;20.970;2023-08-12T00:23:04;101366.16;;;10.66;100.00
36062;BME280;22123;52.412;20.970;2023-08-12T00:25:30;101380.28;;;10.68;100.00
36062;BME280;22123;52.412;20.970;2023-08-12T00:27:56;101377.59;;;10.68;100.00
36062;BME280;22123;52.412;20.970;2023-08-12T00:30:22;101362.34;;;10.59;100.00
36062;BME280;22123;52.412;20.970;2023-08-12T00:32:47;101377.06;;;10.65;100.00
36062;BME280;22123;52.412;20.970;2023-08-12T00:35:13;101357.84;;;10.50;100.00
36062;BME280;22123;52.412;20.970;2023-08-12T00:37:39;101361.25;;;10.52;100.00
36062;BME280;22123;52.412;20.970;2023-08-12T00:40:05;101341.91;;;10.38;100.00
36062;BME280;22123;52.412;20.970;2023-08-12T00:42:31;101376.50;;;10.61;100.00
36062;BME280;22123;52.412;20.970;2023-08-12T00:44:57;101344.75;;;10.37;100.00
36062;BME280;22123;52.412;20.970;2023-08-12T00:47:24;101354.66;;;10.36;100.00
36062;BME280;22123;52.412;20.970;2023-08-12T00:49:50;101351.28;;;10.34;100.00
36062;BME280;22123;52.412;20.970;2023-08-12T00:52:17;101348.16;;;10.29;100.00
36062;BME280;22123;52.412;20.970;2023-08-12T00:54:43;101369.06;;;10.45;100.00
36062;BME280;22123;52.412;20.970;2023-08-12T00:57:09;101380.25;;;10.50;100.00
36062;BME280;22123;52.412;20.970;2023-08-12T00:59:36;101330.66;;;10.15;100.00
36062;BME280;22123;52.412;20.970;2023-08-12T01:02:03;101386.22;;;10.44;100.00
36062;BME280;22123;52.412;20.970;2023-08-12T01:04:29;101352.28;;;10.23;100.00
36062;BME280;22123;52.412;20.970;2023-08-12T01:06:55;101380.59;;;10.37;100.00
36062;BME280;22123;52.412;20.970;2023-08-12T01:09:21;101363.63;;;10.27;100.00
36062;BME280;22123;52.412;20.970;2023-08-12T01:15:01;101287.63;;;9.78;100.00
36062;BME280;22123;52.412;20.970;2023-08-12T01:17:28;101345.44;;;10.01;100.00
36062;BME280;22123;52.412;20.970;2023-08-12T01:19:56;101342.47;;;9.95;100.00
36062;BME280;22123;52.412;20.970;2023-08-12T01:22:23;101340.81;;;9.94;100.00
36062;BME280;22123;52.412;20.970;2023-08-12T01:24:51;101375.53;;;10.15;100.00
36062;BME280;22123;52.412;20.970;2023-08-12T01:27:17;101346.19;;;9.94;100.00
36062;BME280;22123;52.412;20.970;2023-08-12T01:29:45;101339.09;;;9.92;100.00
36062;BME280;22123;52.412;20.970;2023-08-12T01:35:23;101384.22;;;10.08;100.00
36062;BME280;22123;52.412;20.970;2023-08-12T01:37:51;101378.84;;;10.08;100.00
36062;BME280;22123;52.412;20.970;2023-08-12T01:40:19;101352.84;;;9.89;100.00
36062;BME280;22123;52.412;20.970;2023-08-12T01:42:45;101361.47;;;9.93;100.00
36062;BME280;22123;52.412;20.970;2023-08-12T01:45:12;101370.63;;;10.00;100.00
36062;BME280;22123;52.412;20.970;2023-08-12T01:47:38;101360.03;;;9.89;100.00
36062;BME280;22123;52.412;20.970;2023-08-12T01:50:04;101385.78;;;10.01;100.00
36062;BME280;22123;52.412;20.970;2023-08-12T01:52:30;101350.91;;;9.72;100.00
36062;BME280;22123;52.412;20.970;2023-08-12T01:54:55;101355.41;;;9.81;100.00
36062;BME280;22123;52.412;20.970;2023-08-12T01:57:21;101353.56;;;9.82;100.00
36062;BME280;22123;52.412;20.970;2023-08-12T01:59:47;101362.03;;;9.87;100.00
36062;BME280;22123;52.412;20.970;2023-08-12T02:02:13;101297.75;;;9.46;100.00
36062;BME280;22123;52.412;20.970;2023-08-12T02:04:40;101363.19;;;9.84;100.00
36062;BME280;22123;52.412;20.970;2023-08-12T02:07:06;101347.34;;;9.71;100.00
36062;BME280;22123;52.412;20.970;2023-08-12T02:09:31;101345.13;;;9.57;100.00
36062;BME280;22123;52.412;20.970;2023-08-12T02:11:57;101357.00;;;9.64;100.00
36062;BME280;22123;52.412;20.970;2023-08-12T02:14:23;101352.88;;;9.60;100.00
36062;BME280;22123;52.412;20.970;2023-08-12T02:16:49;101365.63;;;9.68;100.00
36062;BME280;22123;52.412;20.970;2023-08-12T02:19:15;101349.66;;;9.56;100.00
36062;BME280;22123;52.412;20.970;2023-08-12T02:21:41;101343.16;;;9.49;100.00
36062;BME280;22123;52.412;20.970;2023-08-12T02:24:07;101380.88;;;9.77;100.00
36062;BME280;22123;52.412;20.970;2023-08-12T02:26:33;101346.41;;;9.53;100.00
36062;BME280;22123;52.412;20.970;2023-08-12T02:28:59;101341.16;;;9.51;100.00
36062;BME280;22123;52.412;20.970;2023-08-12T02:31:25;101343.44;;;9.46;100.00
36062;BME280;22123;52.412;20.970;2023-08-12T02:33:50;101341.88;;;9.44;100.00
36062;BME280;22123;52.412;20.970;2023-08-12T02:36:16;101367.91;;;9.53;100.00
36062;BME280;22123;52.412;20.970;2023-08-12T02:38:42;101352.25;;;9.38;100.00
36062;BME280;22123;52.412;20.970;2023-08-12T02:41:08;101368.63;;;9.45;100.00
36062;BME280;22123;52.412;20.970;2023-08-12T02:43:34;101350.38;;;9.29;100.00
36062;BME280;22123;52.412;20.970;2023-08-12T02:46:00;101358.75;;;9.36;100.00
36062;BME280;22123;52.412;20.970;2023-08-12T02:48:29;101356.59;;;9.30;100.00
36062;BME280;22123;52.412;20.970;2023-08-12T02:50:55;101352.09;;;9.30;100.00
36062;BME280;22123;52.412;20.970;2023-08-12T02:53:21;101386.84;;;9.51;100.00
36062;BME280;22123;52.412;20.970;2023-08-12T02:55:47;101350.25;;;9.31;100.00
36062;BME280;22123;52.412;20.970;2023-08-12T02:58:12;101354.78;;;9.30;100.00
36062;BME280;22123;52.412;20.970;2023-08-12T03:00:42;101372.88;;;9.38;100.00
36062;BME280;22123;52.412;20.970;2023-08-12T03:03:08;101376.13;;;9.32;100.00
36062;BME280;22123;52.412;20.970;2023-08-12T03:05:34;101379.94;;;9.29;100.00
36062;BME280;22123;52.412;20.970;2023-08-12T03:07:59;101367.66;;;9.17;100.00
36062;BME280;22123;52.412;20.970;2023-08-12T03:10:25;101393.53;;;9.28;100.00
36062;BME280;22123;52.412;20.970;2023-08-12T03:12:51;101384.47;;;9.29;100.00
36062;BME280;22123;52.412;20.970;2023-08-12T03:15:17;101392.41;;;9.30;100.00
36062;BME280;22123;52.412;20.970;2023-08-12T03:17:43;101375.28;;;9.21;100.00
36062;BME280;22123;52.412;20.970;2023-08-12T03:20:09;101368.94;;;9.22;100.00
36062;BME280;22123;52.412;20.970;2023-08-12T03:22:38;101373.72;;;9.19;100.00
36062;BME280;22123;52.412;20.970;2023-08-12T03:25:05;101408.25;;;9.43;100.00
36062;BME280;22123;52.412;20.970;2023-08-12T03:27:31;101402.28;;;9.30;100.00
36062;BME280;22123;52.412;20.970;2023-08-12T03:29:57;101389.41;;;9.23;100.00
36062;BME280;22123;52.412;20.970;2023-08-12T03:32:24;101375.72;;;9.17;100.00
36062;BME280;22123;52.412;20.970;2023-08-12T03:34:49;101377.97;;;9.21;100.00
36062;BME280;22123;52.412;20.970;2023-08-12T03:37:15;101403.16;;;9.30;100.00
36062;BME280;22123;52.412;20.970;2023-08-12T03:39:41;101377.97;;;9.21;100.00
36062;BME280;22123;52.412;20.970;2023-08-12T03:42:07;101367.06;;;9.13;100.00
36062;BME280;22123;52.412;20.970;2023-08-12T03:44:33;101390.44;;;9.22;100.00
36062;BME280;22123;52.412;20.970;2023-08-12T03:46:59;101391.41;;;9.31;100.00
36062;BME280;22123;52.412;20.970;2023-08-12T03:49:25;101395.78;;;9.32;100.00
36062;BME280;22123;52.412;20.970;2023-08-12T03:51:51;101385.47;;;9.28;100.00
36062;BME280;22123;52.412;20.970;2023-08-12T03:54:16;101380.66;;;9.31;100.00
36062;BME280;22123;52.412;20.970;2023-08-12T03:56:42;101393.09;;;9.42;100.00
36062;BME280;22123;52.412;20.970;2023-08-12T03:59:08;101400.72;;;9.47;100.00
36062;BME280;22123;52.412;20.970;2023-08-12T04:01:34;101371.59;;;9.32;100.00
36062;BME280;22123;52.412;20.970;2023-08-12T04:04:00;101364.81;;;9.28;100.00
36062;BME280;22123;52.412;20.970;2023-08-12T04:06:26;101387.19;;;9.38;100.00
36062;BME280;22123;52.412;20.970;2023-08-12T04:08:52;101382.63;;;9.39;100.00
36062;BME280;22123;52.412;20.970;2023-08-12T04:11:18;101383.91;;;9.45;100.00
36062;BME280;22123;52.412;20.970;2023-08-12T04:13:44;101392.38;;;9.50;100.00
36062;BME280;22123;52.412;20.970;2023-08-12T04:16:10;101378.09;;;9.49;100.00
36062;BME280;22123;52.412;20.970;2023-08-12T04:18:36;101369.75;;;9.43;100.00
36062;BME280;22123;52.412;20.970;2023-08-12T04:21:02;101404.84;;;9.70;100.00
36062;BME280;22123;52.412;20.970;2023-08-12T04:23:28;101353.91;;;9.39;100.00
36062;BME280;22123;52.412;20.970;2023-08-12T04:25:53;101393.50;;;9.67;100.00
36062;BME280;22123;52.412;20.970;2023-08-12T04:28:19;101361.69;;;9.52;100.00
36062;BME280;22123;52.412;20.970;2023-08-12T04:30:46;101405.38;;;9.84;100.00
36062;BME280;22123;52.412;20.970;2023-08-12T04:33:13;101409.88;;;9.93;100.00
36062;BME280;22123;52.412;20.970;2023-08-12T04:35:40;101385.81;;;9.82;100.00
36062;BME280;22123;52.412;20.970;2023-08-12T04:38:06;101420.03;;;9.99;100.00
36062;BME280;22123;52.412;20.970;2023-08-12T04:40:32;101375.06;;;9.82;100.00
36062;BME280;22123;52.412;20.970;2023-08-12T04:42:59;101409.13;;;10.10;100.00
36062;BME280;22123;52.412;20.970;2023-08-12T04:45:25;101402.31;;;10.06;100.00
36062;BME280;22123;52.412;20.970;2023-08-12T04:47:50;101384.91;;;10.10;100.00
36062;BME280;22123;52.412;20.970;2023-08-12T04:50:16;101409.06;;;10.30;100.00
36062;BME280;22123;52.412;20.970;2023-08-12T04:52:42;101411.31;;;10.44;100.00
36062;BME280;22123;52.412;20.970;2023-08-12T04:55:08;101358.66;;;10.22;100.00
36062;BME280;22123;52.412;20.970;2023-08-12T04:57:34;101397.50;;;10.57;100.00
36062;BME280;22123;52.412;20.970;2023-08-12T05:00:04;101402.94;;;10.75;100.00
36062;BME280;22123;52.412;20.970;2023-08-12T05:02:30;101375.38;;;10.64;100.00
36062;BME280;22123;52.412;20.970;2023-08-12T05:04:56;101361.84;;;10.73;100.00
36062;BME280;22123;52.412;20.970;2023-08-12T05:07:22;101366.16;;;10.84;100.00
36062;BME280;22123;52.412;20.970;2023-08-12T05:09:48;101383.19;;;11.03;100.00
36062;BME280;22123;52.412;20.970;2023-08-12T05:12:13;101358.22;;;11.01;100.00
36062;BME280;22123;52.412;20.970;2023-08-12T05:14:40;101358.09;;;11.02;100.00
36062;BME280;22123;52.412;20.970;2023-08-12T05:17:06;101319.31;;;10.95;100.00
36062;BME280;22123;52.412;20.970;2023-08-12T05:19:32;101392.69;;;11.43;100.00
36062;BME280;22123;52.412;20.970;2023-08-12T05:21:58;101353.47;;;11.30;100.00
36062;BME280;22123;52.412;20.970;2023-08-12T05:24:24;101345.38;;;11.30;100.00
36062;BME280;22123;52.412;20.970;2023-08-12T05:26:49;101367.63;;;11.51;100.00
36062;BME280;22123;52.412;20.970;2023-08-12T05:29:15;101359.75;;;11.57;100.00
36062;BME280;22123;52.412;20.970;2023-08-12T05:31:41;101360.28;;;11.61;100.00
36062;BME280;22123;52.412;20.970;2023-08-12T05:34:07;101391.00;;;11.86;100.00
36062;BME280;22123;52.412;20.970;2023-08-12T05:36:33;101341.63;;;11.68;100.00
36062;BME280;22123;52.412;20.970;2023-08-12T05:38:59;101337.97;;;11.77;100.00
36062;BME280;22123;52.412;20.970;2023-08-12T05:41:25;101351.03;;;11.90;100.00
36062;BME280;22123;52.412;20.970;2023-08-12T05:43:51;101336.25;;;11.94;100.00
36062;BME280;22123;52.412;20.970;2023-08-12T05:46:16;101375.91;;;12.28;100.00
36062;BME280;22123;52.412;20.970;2023-08-12T05:48:42;101355.13;;;12.20;100.00
36062;BME280;22123;52.412;20.970;2023-08-12T05:51:08;101374.81;;;12.47;100.00
36062;BME280;22123;52.412;20.970;2023-08-12T05:53:34;101343.72;;;12.34;100.00
36062;BME280;22123;52.412;20.970;2023-08-12T05:56:00;101355.59;;;12.58;100.00
36062;BME280;22123;52.412;20.970;2023-08-12T05:58:26;101334.84;;;12.59;100.00
36062;BME280;22123;52.412;20.970;2023-08-12T06:00:52;101348.06;;;12.78;100.00
36062;BME280;22123;52.412;20.970;2023-08-12T06:03:18;101350.28;;;12.91;100.00
36062;BME280;22123;52.412;20.970;2023-08-12T06:05:45;101352.69;;;13.02;100.00
36062;BME280;22123;52.412;20.970;2023-08-12T06:08:12;101369.59;;;13.29;100.00
36062;BME280;22123;52.412;20.970;2023-08-12T06:10:38;101361.13;;;13.32;100.00
36062;BME280;22123;52.412;20.970;2023-08-12T06:13:04;101374.53;;;13.50;100.00
36062;BME280;22123;52.412;20.970;2023-08-12T06:15:30;101355.63;;;13.50;100.00
36062;BME280;22123;52.412;20.970;2023-08-12T06:17:56;101367.75;;;13.71;100.00
36062;BME280;22123;52.412;20.970;2023-08-12T06:20:23;101372.81;;;13.82;100.00
36062;BME280;22123;52.412;20.970;2023-08-12T06:22:50;101346.13;;;13.79;100.00
36062;BME280;22123;52.412;20.970;2023-08-12T06:25:15;101350.13;;;13.91;100.00
36062;BME280;22123;52.412;20.970;2023-08-12T06:27:41;101349.28;;;13.99;100.00
36062;BME280;22123;52.412;20.970;2023-08-12T06:30:08;101356.16;;;14.18;100.00
36062;BME280;22123;52.412;20.970;2023-08-12T06:32:34;101327.41;;;14.09;100.00
36062;BME280;22123;52.412;20.970;2023-08-12T06:35:00;101377.38;;;14.46;100.00
36062;BME280;22123;52.412;20.970;2023-08-12T06:37:26;101321.94;;;14.25;100.00
36062;BME280;22123;52.412;20.970;2023-08-12T06:39:52;101349.94;;;14.49;100.00
36062;BME280;22123;52.412;20.970;2023-08-12T06:42:18;101362.25;;;14.68;100.00
36062;BME280;22123;52.412;20.970;2023-08-12T06:44:45;101329.25;;;14.56;100.00
36062;BME280;22123;52.412;20.970;2023-08-12T06:47:11;101357.53;;;14.93;100.00
36062;BME280;22123;52.412;20.970;2023-08-12T06:49:37;101356.25;;;15.04;100.00
36062;BME280;22123;52.412;20.970;2023-08-12T06:52:03;101363.81;;;15.17;100.00
36062;BME280;22123;52.412;20.970;2023-08-12T06:54:29;101344.28;;;15.22;100.00
36062;BME280;22123;52.412;20.970;2023-08-12T06:56:54;101377.59;;;15.54;100.00
36062;BME280;22123;52.412;20.970;2023-08-12T06:59:20;101346.53;;;15.56;100.00
36062;BME280;22123;52.412;20.970;2023-08-12T07:01:46;101372.97;;;15.77;100.00
36062;BME280;22123;52.412;20.970;2023-08-12T07:04:12;101342.97;;;15.56;100.00
36062;BME280;22123;52.412;20.970;2023-08-12T07:06:37;101348.63;;;15.69;100.00
36062;BME280;22123;52.412;20.970;2023-08-12T07:09:03;101360.09;;;15.94;100.00
36062;BME280;22123;52.412;20.970;2023-08-12T07:11:29;101350.84;;;16.04;100.00
36062;BME280;22123;52.412;20.970;2023-08-12T07:13:55;101366.19;;;16.26;100.00
36062;BME280;22123;52.412;20.970;2023-08-12T07:16:21;101342.13;;;16.23;100.00
36062;BME280;22123;52.412;20.970;2023-08-12T07:18:46;101364.97;;;16.44;100.00
36062;BME280;22123;52.412;20.970;2023-08-12T07:21:12;101339.94;;;16.33;100.00
36062;BME280;22123;52.412;20.970;2023-08-12T07:23:38;101365.69;;;16.67;100.00
36062;BME280;22123;52.412;20.970;2023-08-12T07:26:04;101348.25;;;16.62;100.00
36062;BME280;22123;52.412;20.970;2023-08-12T07:28:30;101336.56;;;16.61;100.00
36062;BME280;22123;52.412;20.970;2023-08-12T07:30:55;101358.69;;;16.80;100.00
36062;BME280;22123;52.412;20.970;2023-08-12T07:33:21;101361.16;;;16.75;100.00
36062;BME280;22123;52.412;20.970;2023-08-12T07:35:47;101360.75;;;16.93;100.00
36062;BME280;22123;52.412;20.970;2023-08-12T07:38:13;101356.19;;;17.15;100.00
36062;BME280;22123;52.412;20.970;2023-08-12T07:40:39;101345.94;;;17.17;100.00
36062;BME280;22123;52.412;20.970;2023-08-12T07:43:04;101319.84;;;17.23;100.00
36062;BME280;22123;52.412;20.970;2023-08-12T07:45:30;101350.44;;;17.75;100.00
36062;BME280;22123;52.412;20.970;2023-08-12T07:47:56;101329.72;;;17.80;100.00
36062;BME280;22123;52.412;20.970;2023-08-12T07:50:22;101324.09;;;17.88;100.00
36062;BME280;22123;52.412;20.970;2023-08-12T07:52:48;101318.34;;;17.98;100.00
36062;BME280;22123;52.412;20.970;2023-08-12T07:55:14;101314.28;;;18.22;100.00
36062;BME280;22123;52.412;20.970;2023-08-12T07:57:40;101305.13;;;18.37;100.00
36062;BME280;22123;52.412;20.970;2023-08-12T08:00:06;101309.00;;;18.63;100.00
36062;BME280;22123;52.412;20.970;2023-08-12T08:02:32;101324.00;;;19.00;100.00
36062;BME280;22123;52.412;20.970;2023-08-12T08:04:58;101271.75;;;19.03;100.00
36062;BME280;22123;52.412;20.970;2023-08-12T08:07:24;101295.91;;;19.46;100.00
36062;BME280;22123;52.412;20.970;2023-08-12T08:09:51;101314.75;;;19.95;100.00
36062;BME280;22123;52.412;20.970;2023-08-12T08:12:16;101298.75;;;20.12;100.00
36062;BME280;22123;52.412;20.970;2023-08-12T08:14:42;101294.69;;;20.28;100.00
36062;BME280;22123;52.412;20.970;2023-08-12T08:17:08;101301.13;;;20.40;100.00
36062;BME280;22123;52.412;20.970;2023-08-12T08:19:34;101312.81;;;20.67;100.00
36062;BME280;22123;52.412;20.970;2023-08-12T08:22:00;101308.47;;;20.92;100.00
36062;BME280;22123;52.412;20.970;2023-08-12T08:24:26;101290.97;;;20.93;100.00
36062;BME280;22123;52.412;20.970;2023-08-12T08:26:52;101282.38;;;20.89;100.00
36062;BME280;22123;52.412;20.970;2023-08-12T08:29:18;101292.00;;;20.98;100.00
36062;BME280;22123;52.412;20.970;2023-08-12T08:31:44;101281.31;;;20.52;100.00
36062;BME280;22123;52.412;20.970;2023-08-12T08:34:10;101298.53;;;20.59;100.00
36062;BME280;22123;52.412;20.970;2023-08-12T08:36:36;101277.16;;;20.42;100.00
36062;BME280;22123;52.412;20.970;2023-08-12T08:39:02;101284.72;;;20.40;100.00
36062;BME280;22123;52.412;20.970;2023-08-12T08:41:30;101304.69;;;20.47;100.00
36062;BME280;22123;52.412;20.970;2023-08-12T08:44:01;101292.03;;;20.01;100.00
36062;BME280;22123;52.412;20.970;2023-08-12T08:46:27;101305.91;;;20.06;100.00
36062;BME280;22123;52.412;20.970;2023-08-12T08:48:54;101262.25;;;19.86;100.00
36062;BME280;22123;52.412;20.970;2023-08-12T08:51:20;101281.03;;;20.14;100.00
36062;BME280;22123;52.412;20.970;2023-08-12T08:53:47;101267.44;;;20.08;100.00
36062;BME280;22123;52.412;20.970;2023-08-12T08:56:13;101280.22;;;20.14;100.00
36062;BME280;22123;52.412;20.970;2023-08-12T08:58:39;101266.56;;;20.14;100.00
36062;BME280;22123;52.412;20.970;2023-08-12T09:01:07;101282.06;;;20.20;100.00
36062;BME280;22123;52.412;20.970;2023-08-12T09:03:35;101276.81;;;20.25;100.00
36062;BME280;22123;52.412;20.970;2023-08-12T09:06:03;101281.59;;;20.37;100.00
36062;BME280;22123;52.412;20.970;2023-08-12T09:08:32;101271.72;;;20.29;100.00
36062;BME280;22123;52.412;20.970;2023-08-12T09:10:59;101273.03;;;20.26;100.00
36062;BME280;22123;52.412;20.970;2023-08-12T09:13:25;101295.44;;;20.48;100.00
36062;BME280;22123;52.412;20.970;2023-08-12T09:15:51;101202.50;;;19.96;100.00
36062;BME280;22123;52.412;20.970;2023-08-12T09:18:17;101279.63;;;20.50;100.00
36062;BME280;22123;52.412;20.970;2023-08-12T09:20:43;101262.03;;;20.40;100.00
36062;BME280;22123;52.412;20.970;2023-08-12T09:23:09;101258.63;;;20.44;100.00
36062;BME280;22123;52.412;20.970;2023-08-12T09:25:35;101240.66;;;20.69;100.00
36062;BME280;22123;52.412;20.970;2023-08-12T09:28:01;101246.84;;;20.82;100.00
36062;BME280;22123;52.412;20.970;2023-08-12T09:30:30;101251.38;;;20.95;100.00
36062;BME280;22123;52.412;20.970;2023-08-12T09:33:01;101243.75;;;20.72;100.00
36062;BME280;22123;52.412;20.970;2023-08-12T09:38:01;101276.78;;;20.77;100.00
36062;BME280;22123;52.412;20.970;2023-08-12T09:40:27;101262.91;;;20.72;100.00
36062;BME280;22123;52.412;20.970;2023-08-12T09:42:53;101258.41;;;20.84;100.00
36062;BME280;22123;52.412;20.970;2023-08-12T09:45:20;101244.03;;;20.96;100.00
36062;BME280;22123;52.412;20.970;2023-08-12T09:47:48;101255.00;;;21.14;100.00
36062;BME280;22123;52.412;20.970;2023-08-12T09:50:14;101233.34;;;21.13;100.00
36062;BME280;22123;52.412;20.970;2023-08-12T09:52:40;101233.34;;;21.13;100.00
36062;BME280;22123;52.412;20.970;2023-08-12T09:55:07;101256.94;;;21.14;100.00
36062;BME280;22123;52.412;20.970;2023-08-12T09:57:35;101246.13;;;20.94;100.00
36062;BME280;22123;52.412;20.970;2023-08-12T10:00:07;101219.78;;;20.74;100.00
36062;BME280;22123;52.412;20.970;2023-08-12T10:02:33;101231.34;;;20.70;100.00
36062;BME280;22123;52.412;20.970;2023-08-12T10:04:59;101232.84;;;20.65;100.00
36062;BME280;22123;52.412;20.970;2023-08-12T10:07:25;101215.16;;;20.68;100.00
36062;BME280;22123;52.412;20.970;2023-08-12T10:09:52;101223.41;;;20.93;100.00
36062;BME280;22123;52.412;20.970;2023-08-12T10:12:19;101198.59;;;20.88;100.00
36062;BME280;22123;52.412;20.970;2023-08-12T10:14:46;101214.84;;;21.33;100.00
36062;BME280;22123;52.412;20.970;2023-08-12T10:17:12;101233.00;;;22.09;100.00
36062;BME280;22123;52.412;20.970;2023-08-12T10:19:43;101235.50;;;22.59;100.00
36062;BME280;22123;52.412;20.970;2023-08-12T10:22:10;101207.63;;;22.74;100.00
36062;BME280;22123;52.412;20.970;2023-08-12T10:24:36;101195.94;;;22.79;100.00
36062;BME280;22123;52.412;20.970;2023-08-12T10:27:03;101209.69;;;22.90;100.00
36062;BME280;22123;52.412;20.970;2023-08-12T10:29:30;101194.03;;;22.79;100.00
36062;BME280;22123;52.412;20.970;2023-08-12T10:31:56;101215.03;;;22.85;100.00
36062;BME280;22123;52.412;20.970;2023-08-12T10:34:24;101219.59;;;22.91;100.00
36062;BME280;22123;52.412;20.970;2023-08-12T10:36:58;101197.44;;;23.29;100.00
36062;BME280;22123;52.412;20.970;2023-08-12T10:39:27;101197.53;;;24.10;99.27
36062;BME280;22123;52.412;20.970;2023-08-12T10:41:55;101192.19;;;24.78;90.30
36062;BME280;22123;52.412;20.970;2023-08-12T10:44:21;101174.63;;;25.74;94.88
36062;BME280;22123;52.412;20.970;2023-08-12T10:47:05;101173.59;;;26.89;76.20
36062;BME280;22123;52.412;20.970;2023-08-12T10:49:50;101209.56;;;28.69;59.02
36062;BME280;22123;52.412;20.970;2023-08-12T10:52:29;101180.50;;;29.83;52.02
36062;BME280;22123;52.412;20.970;2023-08-12T10:54:55;101179.47;;;30.64;45.52
36062;BME280;22123;52.412;20.970;2023-08-12T10:57:40;101176.31;;;31.59;42.24
36062;BME280;22123;52.412;20.970;2023-08-12T11:00:13;101184.38;;;32.03;42.33
36062;BME280;22123;52.412;20.970;2023-08-12T11:02:39;101176.78;;;32.47;40.37
36062;BME280;22123;52.412;20.970;2023-08-12T11:05:10;101176.88;;;32.23;42.94
36062;BME280;22123;52.412;20.970;2023-08-12T11:07:47;101179.84;;;32.46;38.59
36062;BME280;22123;52.412;20.970;2023-08-12T11:12:47;101187.81;;;33.04;41.22
36062;BME280;22123;52.412;20.970;2023-08-12T11:15:13;101157.13;;;32.90;40.83
36062;BME280;22123;52.412;20.970;2023-08-12T11:17:40;101178.13;;;32.69;42.42
36062;BME280;22123;52.412;20.970;2023-08-12T11:20:09;101169.75;;;32.69;40.02
36062;BME280;22123;52.412;20.970;2023-08-12T11:22:37;101149.19;;;32.32;39.19
36062;BME280;22123;52.412;20.970;2023-08-12T11:25:08;101162.09;;;32.03;41.02
36062;BME280;22123;52.412;20.970;2023-08-12T11:30:07;101155.47;;;30.73;43.74
36062;BME280;22123;52.412;20.970;2023-08-12T11:32:34;101157.00;;;30.21;43.97
36062;BME280;22123;52.412;20.970;2023-08-12T11:35:00;101131.91;;;29.16;56.11
36062;BME280;22123;52.412;20.970;2023-08-12T11:37:26;101153.28;;;28.38;53.41
36062;BME280;22123;52.412;20.970;2023-08-12T11:39:52;101168.00;;;27.70;54.37
36062;BME280;22123;52.412;20.970;2023-08-12T11:42:18;101152.38;;;26.63;53.38
36062;BME280;22123;52.412;20.970;2023-08-12T11:44:44;101161.38;;;26.48;52.16
36062;BME280;22123;52.412;20.970;2023-08-12T11:47:10;101143.75;;;26.27;56.54
36062;BME280;22123;52.412;20.970;2023-08-12T11:49:36;101149.72;;;26.13;59.11
36062;BME280;22123;52.412;20.970;2023-08-12T11:52:02;101143.31;;;25.85;63.01
36062;BME280;22123;52.412;20.970;2023-08-12T11:54:28;101130.13;;;25.65;61.81
36062;BME280;22123;52.412;20.970;2023-08-12T11:56:55;101138.41;;;25.43;60.32
36062;BME280;22123;52.412;20.970;2023-08-12T11:59:21;101139.91;;;25.34;61.88
36062;BME280;22123;52.412;20.970;2023-08-12T12:01:49;101142.41;;;25.18;72.70
36062;BME280;22123;52.412;20.970;2023-08-12T12:04:15;101152.59;;;25.18;72.60
36062;BME280;22123;52.412;20.970;2023-08-12T12:06:41;101141.59;;;25.01;73.84
36062;BME280;22123;52.412;20.970;2023-08-12T12:09:08;101122.28;;;24.96;71.21
36062;BME280;22123;52.412;20.970;2023-08-12T12:11:34;101115.19;;;24.66;71.00
36062;BME280;22123;52.412;20.970;2023-08-12T12:14:02;101141.31;;;24.80;65.65
36062;BME280;22123;52.412;20.970;2023-08-12T12:16:46;101126.97;;;24.61;80.12
36062;BME280;22123;52.412;20.970;2023-08-12T12:19:22;101134.97;;;24.80;75.77
36062;BME280;22123;52.412;20.970;2023-08-12T12:21:50;101110.34;;;24.90;65.65
36062;BME280;22123;52.412;20.970;2023-08-12T12:24:18;101087.41;;;24.85;76.77
36062;BME280;22123;52.412;20.970;2023-08-12T12:26:44;101128.97;;;25.22;62.62
36062;BME280;22123;52.412;20.970;2023-08-12T12:29:11;101119.38;;;25.25;69.71
36062;BME280;22123;52.412;20.970;2023-08-12T12:31:37;101110.50;;;25.00;74.18
36062;BME280;22123;52.412;20.970;2023-08-12T12:34:03;101105.75;;;24.79;80.35
36062;BME280;22123;52.412;20.970;2023-08-12T12:36:30;101119.88;;;24.82;66.58
36062;BME280;22123;52.412;20.970;2023-08-12T12:38:56;101052.22;;;24.36;77.48
36062;BME280;22123;52.412;20.970;2023-08-12T12:41:22;101101.84;;;24.75;65.55
36062;BME280;22123;52.412;20.970;2023-08-12T12:43:48;101076.16;;;24.52;67.75